createdAt,value
2022-07-27T00:01:18.991Z,92.15
2022-07-27T00:03:47.657Z,92.15
2022-07-27T00:06:16.029Z,92.22
2022-07-27T00:08:44.041Z,92.21
2022-07-27T00:11:14.132Z,92.36
2022-07-27T00:13:42.311Z,92.41
2022-07-27T00:16:10.526Z,92.48
2022-07-27T00:18:38.705Z,92.53
2022-07-27T00:21:07.005Z,92.65
2022-07-27T00:23:35.019Z,92.87
2022-07-27T00:26:03.096Z,92.87
2022-07-27T00:28:31.012Z,92.80
2022-07-27T00:30:59.293Z,92.78
2022-07-27T00:33:27.419Z,92.80
2022-07-27T00:35:55.740Z,92.84
2022-07-27T00:38:23.653Z,92.81
2022-07-27T00:40:51.610Z,92.78
2022-07-27T00:43:20.091Z,92.73
2022-07-27T00:45:48.122Z,92.66
2022-07-27T00:48:16.091Z,92.61
2022-07-27T00:50:46.349Z,92.52
2022-07-27T00:53:14.883Z,92.41
2022-07-27T00:55:42.983Z,92.34
2022-07-27T00:58:11.069Z,92.26
2022-07-27T01:00:39.180Z,92.22
2022-07-27T01:03:08.768Z,92.20
2022-07-27T01:05:42.571Z,92.18
2022-07-27T01:08:15.244Z,92.04
2022-07-27T01:10:44.820Z,91.86
2022-07-27T01:13:16.051Z,91.83
2022-07-27T01:15:44.773Z,91.80
2022-07-27T01:18:27.266Z,91.72
2022-07-27T01:20:56.933Z,91.63
2022-07-27T01:23:25.973Z,91.56
2022-07-27T01:25:55.166Z,91.55
2022-07-27T01:28:23.660Z,91.56
2022-07-27T01:30:53.450Z,91.56
2022-07-27T01:33:28.136Z,91.57
2022-07-27T01:35:57.976Z,91.63
2022-07-27T01:38:26.771Z,91.69
2022-07-27T01:40:55.715Z,91.70
2022-07-27T01:43:24.293Z,91.62
2022-07-27T01:45:52.365Z,91.53
2022-07-27T01:48:21.148Z,91.52
2022-07-27T01:50:51.264Z,91.50
2022-07-27T01:53:21.201Z,91.50
2022-07-27T01:55:51.011Z,91.52
2022-07-27T01:58:19.391Z,91.52
2022-07-27T02:00:49.139Z,91.46
2022-07-27T02:03:17.250Z,91.43
2022-07-27T02:05:45.245Z,91.47
2022-07-27T02:08:13.742Z,91.48
2022-07-27T02:11:04.030Z,91.52
2022-07-27T02:13:31.949Z,91.44
2022-07-27T02:16:00.572Z,91.37
2022-07-27T02:18:33.561Z,91.30
2022-07-27T02:21:06.409Z,91.29
2022-07-27T02:23:54.452Z,91.34
2022-07-27T02:26:22.510Z,91.42
2022-07-27T02:28:50.543Z,91.46
2022-07-27T02:31:18.713Z,91.49
2022-07-27T02:33:46.549Z,91.51
2022-07-27T02:36:14.447Z,91.52
2022-07-27T02:38:42.321Z,91.40
2022-07-27T02:41:10.232Z,91.46
2022-07-27T02:43:38.135Z,91.33
2022-07-27T02:46:06.252Z,91.38
2022-07-27T02:48:34.151Z,91.44
2022-07-27T02:51:02.240Z,91.48
2022-07-27T02:53:30.866Z,91.46
2022-07-27T02:55:58.880Z,91.51
2022-07-27T02:58:26.858Z,91.57
2022-07-27T03:00:58.310Z,91.48
2022-07-27T03:03:36.523Z,91.44
2022-07-27T03:06:15.719Z,91.47
2022-07-27T03:08:43.729Z,91.46
2022-07-27T03:11:11.598Z,91.38
2022-07-27T03:13:39.485Z,91.25
2022-07-27T03:16:08.082Z,90.67
2022-07-27T03:18:36.210Z,90.59
2022-07-27T03:21:04.695Z,90.25
2022-07-27T03:23:34.824Z,90.19
2022-07-27T03:26:02.710Z,89.98
2022-07-27T03:28:30.525Z,89.92
2022-07-27T03:30:58.834Z,89.60
2022-07-27T03:33:26.777Z,89.61
2022-07-27T03:35:54.653Z,89.33
2022-07-27T03:38:23.436Z,89.12
2022-07-27T03:40:52.043Z,88.96
2022-07-27T03:43:19.885Z,88.57
2022-07-27T03:45:48.059Z,88.40
2022-07-27T03:48:15.942Z,88.19
2022-07-27T03:50:43.898Z,87.88
2022-07-27T03:53:12.350Z,88.27
2022-07-27T03:55:40.319Z,88.17
2022-07-27T03:58:08.207Z,88.19
2022-07-27T04:00:36.068Z,88.14
2022-07-27T04:03:04.240Z,88.01
2022-07-27T04:05:32.241Z,87.79
2022-07-27T04:08:00.155Z,87.28
2022-07-27T04:10:31.475Z,86.99
2022-07-27T04:13:00.144Z,86.93
2022-07-27T04:15:29.501Z,86.90
2022-07-27T04:17:57.876Z,86.17
2022-07-27T04:20:26.268Z,85.80
2022-07-27T04:22:54.608Z,85.56
2022-07-27T04:25:23.337Z,84.90
2022-07-27T04:27:51.372Z,85.04
2022-07-27T04:30:19.475Z,84.70
2022-07-27T04:32:47.980Z,83.87
2022-07-27T04:35:16.440Z,82.09
2022-07-27T04:37:59.142Z,82.15
2022-07-27T04:40:35.088Z,81.47
2022-07-27T04:43:05.074Z,81.61
2022-07-27T04:45:33.557Z,82.01
2022-07-27T04:48:08.884Z,82.08
2022-07-27T04:50:44.123Z,81.07
2022-07-27T04:53:13.509Z,80.35
2022-07-27T04:55:43.426Z,80.31
2022-07-27T04:58:12.298Z,79.82
2022-07-27T05:00:40.353Z,78.44
2022-07-27T05:03:08.426Z,77.54
2022-07-27T05:05:36.842Z,77.26
2022-07-27T05:08:05.194Z,77.04
2022-07-27T05:10:33.162Z,78.02
2022-07-27T05:13:01.799Z,79.07
2022-07-27T05:15:30.209Z,79.06
2022-07-27T05:18:19.186Z,76.87
2022-07-27T05:20:47.375Z,76.39
2022-07-27T05:23:18.489Z,77.00
2022-07-27T05:25:46.668Z,77.93
2022-07-27T05:28:14.793Z,77.65
2022-07-27T05:30:42.818Z,77.17
2022-07-27T05:33:10.780Z,77.14
2022-07-27T05:35:38.764Z,75.29
2022-07-27T05:38:07.045Z,75.04
2022-07-27T05:40:35.152Z,74.28
2022-07-27T05:43:03.165Z,74.42
2022-07-27T05:45:31.117Z,74.94
2022-07-27T05:48:00.000Z,75.09
2022-07-27T05:50:28.105Z,75.50
2022-07-27T05:52:58.915Z,75.57
2022-07-27T05:55:27.070Z,72.42
2022-07-27T05:57:55.791Z,69.87
2022-07-27T06:00:23.801Z,66.77
2022-07-27T06:02:52.044Z,60.11
2022-07-27T06:05:20.269Z,56.55
2022-07-27T06:08:00.621Z,57.35
2022-07-27T06:10:32.558Z,54.13
2022-07-27T06:13:03.499Z,51.82
2022-07-27T06:15:31.651Z,49.65
2022-07-27T06:17:59.602Z,48.36
2022-07-27T06:20:27.746Z,48.39
2022-07-27T06:23:00.625Z,49.71
2022-07-27T06:25:35.226Z,50.79
2022-07-27T06:28:06.238Z,50.54
2022-07-27T06:30:34.554Z,48.94
2022-07-27T06:33:06.895Z,49.63
2022-07-27T06:35:38.916Z,48.77
2022-07-27T06:38:09.635Z,48.09
2022-07-27T06:40:37.971Z,44.84
2022-07-27T06:43:06.082Z,43.18
2022-07-27T06:45:34.172Z,43.44
2022-07-27T06:48:02.340Z,42.68
2022-07-27T06:50:30.430Z,42.21
2022-07-27T06:52:58.560Z,42.03
2022-07-27T06:55:26.944Z,40.39
2022-07-27T06:57:55.456Z,40.15
2022-07-27T07:00:23.865Z,40.78
2022-07-27T07:03:04.796Z,39.80
2022-07-27T07:05:38.460Z,39.57
2022-07-27T07:08:11.930Z,40.86
2022-07-27T07:10:42.054Z,41.20
2022-07-27T07:13:10.427Z,40.99
2022-07-27T07:15:41.017Z,40.56
2022-07-27T07:18:11.675Z,40.47
2022-07-27T07:20:40.700Z,39.90
2022-07-27T07:23:09.719Z,39.13
2022-07-27T07:25:39.537Z,39.52
2022-07-27T07:28:08.199Z,39.61
2022-07-27T07:30:36.658Z,36.99
2022-07-27T07:33:05.255Z,37.58
2022-07-27T07:35:33.554Z,39.52
2022-07-27T07:38:01.423Z,39.77
2022-07-27T07:40:43.331Z,38.49
2022-07-27T07:43:14.156Z,38.76
2022-07-27T07:45:47.388Z,36.44
2022-07-27T07:48:21.910Z,36.04
2022-07-27T07:50:53.471Z,37.45
2022-07-27T07:53:24.798Z,39.20
2022-07-27T07:55:57.646Z,37.71
2022-07-27T07:58:25.659Z,35.63
2022-07-27T08:00:53.625Z,35.82
2022-07-27T08:03:22.447Z,35.50
2022-07-27T08:05:51.715Z,36.83
2022-07-27T08:08:19.910Z,37.23
2022-07-27T08:10:52.780Z,36.22
2022-07-27T08:13:22.505Z,35.56
2022-07-27T08:15:52.922Z,34.48
2022-07-27T08:18:21.412Z,34.07
2022-07-27T08:20:49.751Z,34.77
2022-07-27T08:23:17.866Z,34.29
2022-07-27T08:25:46.638Z,32.80
2022-07-27T08:28:15.183Z,33.13
2022-07-27T08:30:44.796Z,33.37
2022-07-27T08:33:13.052Z,31.54
2022-07-27T08:35:41.298Z,31.64
2022-07-27T08:38:09.938Z,32.22
2022-07-27T08:40:42.215Z,32.63
2022-07-27T08:43:21.800Z,30.83
2022-07-27T08:45:56.367Z,31.43
2022-07-27T08:48:26.532Z,31.63
2022-07-27T08:50:55.861Z,31.90
2022-07-27T08:53:25.660Z,30.31
2022-07-27T08:55:57.159Z,30.30
2022-07-27T08:58:25.129Z,31.56
2022-07-27T09:00:53.456Z,32.78
2022-07-27T09:03:23.463Z,32.67
2022-07-27T09:05:55.977Z,32.71
2022-07-27T09:08:30.944Z,32.51
2022-07-27T09:11:01.154Z,32.65
2022-07-27T09:13:32.170Z,33.06
2022-07-27T09:16:19.730Z,32.23
2022-07-27T09:18:49.237Z,32.34
2022-07-27T09:21:23.412Z,32.63
2022-07-27T09:23:53.474Z,32.80
2022-07-27T09:26:32.418Z,33.07
2022-07-27T09:29:14.633Z,33.02
2022-07-27T09:31:48.871Z,33.11
2022-07-27T09:34:32.042Z,33.32
2022-07-27T09:37:05.660Z,32.75
2022-07-27T09:39:34.496Z,32.29
2022-07-27T09:42:03.006Z,32.57
2022-07-27T09:44:42.465Z,33.29
2022-07-27T09:47:28.007Z,34.42
2022-07-27T09:50:17.824Z,34.02
2022-07-27T09:52:47.194Z,33.11
2022-07-27T09:55:19.815Z,34.80
2022-07-27T09:57:56.228Z,35.22
2022-07-27T10:00:26.405Z,34.95
2022-07-27T10:02:55.676Z,33.44
2022-07-27T10:05:24.292Z,33.89
2022-07-27T10:07:54.737Z,34.62
2022-07-27T10:10:23.733Z,33.81
2022-07-27T10:12:55.655Z,34.27
2022-07-27T10:15:25.263Z,34.76
2022-07-27T10:18:01.766Z,34.54
2022-07-27T10:20:31.958Z,33.94
2022-07-27T10:23:00.353Z,35.15
2022-07-27T10:25:37.552Z,34.20
2022-07-27T10:28:20.979Z,34.25
2022-07-27T10:30:54.250Z,34.78
2022-07-27T10:33:54.474Z,33.70
2022-07-27T10:36:31.469Z,34.16
2022-07-27T10:39:07.341Z,35.19
2022-07-27T10:41:40.450Z,35.01
2022-07-27T10:44:23.924Z,33.94
2022-07-27T10:47:02.173Z,33.88
2022-07-27T10:49:40.293Z,34.16
2022-07-27T10:52:49.238Z,34.49
2022-07-27T10:55:32.806Z,36.42
2022-07-27T10:58:03.312Z,36.15
2022-07-27T11:00:55.754Z,36.99
2022-07-27T11:03:29.260Z,37.55
2022-07-27T11:11:50.106Z,37.20
2022-07-27T11:14:19.392Z,36.03
2022-07-27T11:17:47.320Z,33.31
2022-07-27T11:20:04.372Z,32.75
2022-07-27T11:25:30.123Z,33.24
2022-07-27T11:27:58.237Z,34.12
2022-07-27T11:30:28.703Z,34.07
2022-07-27T11:32:56.824Z,34.08
2022-07-27T11:35:24.928Z,34.31
2022-07-27T11:38:01.443Z,33.91
2022-07-27T11:41:07.035Z,33.53
2022-07-27T11:43:45.105Z,32.69
2022-07-27T11:46:26.870Z,32.98
2022-07-27T11:49:16.727Z,32.45
2022-07-27T11:51:48.173Z,33.02
2022-07-27T11:54:31.339Z,31.77
2022-07-27T11:57:06.081Z,30.83
2022-07-27T11:59:39.628Z,31.31
2022-07-27T12:02:20.131Z,30.71
2022-07-27T12:04:51.101Z,32.75
2022-07-27T12:07:30.859Z,33.07
2022-07-27T12:10:04.728Z,33.66
2022-07-27T12:12:35.406Z,34.14
2022-07-27T12:15:44.197Z,34.89
2022-07-27T12:18:03.730Z,35.66
2022-07-27T12:20:34.049Z,36.55
2022-07-27T12:23:09.444Z,37.63
2022-07-27T12:25:39.244Z,37.54
2022-07-27T12:28:11.299Z,37.47
2022-07-27T12:30:42.467Z,37.68
2022-07-27T12:33:28.521Z,36.77
2022-07-27T12:35:57.934Z,36.37
2022-07-27T12:38:37.877Z,35.60
2022-07-27T12:41:06.077Z,34.70
2022-07-27T12:43:34.228Z,33.82
2022-07-27T12:46:13.149Z,33.70
2022-07-27T12:48:43.091Z,33.32
2022-07-27T12:51:11.451Z,34.49
2022-07-27T12:53:39.704Z,35.96
2022-07-27T12:56:10.750Z,36.34
2022-07-27T12:58:38.795Z,36.46
2022-07-27T13:01:07.069Z,36.08
2022-07-27T13:03:37.047Z,35.37
2022-07-27T13:06:10.818Z,34.62
2022-07-27T13:08:41.077Z,34.77
2022-07-27T13:11:09.266Z,34.92
2022-07-27T13:13:37.380Z,35.44
2022-07-27T13:16:05.783Z,35.80
2022-07-27T13:18:33.816Z,35.45
2022-07-27T13:21:01.990Z,35.29
2022-07-27T13:23:30.175Z,35.41
2022-07-27T13:25:58.241Z,34.15
2022-07-27T13:28:26.273Z,33.77
2022-07-27T13:30:54.937Z,34.49
2022-07-27T13:33:23.065Z,34.20
2022-07-27T13:35:59.017Z,35.29
2022-07-27T13:38:29.724Z,36.31
2022-07-27T13:40:57.687Z,35.73
2022-07-27T13:43:25.718Z,35.77
2022-07-27T13:45:53.878Z,36.62
2022-07-27T13:48:22.309Z,37.09
2022-07-27T13:50:50.396Z,36.84
2022-07-27T13:53:19.235Z,37.04
2022-07-27T13:55:47.858Z,36.48
2022-07-27T13:58:15.939Z,34.05
2022-07-27T14:00:44.184Z,33.13
2022-07-27T14:03:12.407Z,34.17
2022-07-27T14:05:49.147Z,35.69
2022-07-27T14:08:21.582Z,36.86
2022-07-27T14:10:51.180Z,36.78
2022-07-27T14:13:22.908Z,35.36
2022-07-27T14:15:54.451Z,33.92
2022-07-27T14:18:28.371Z,34.02
2022-07-27T14:21:04.751Z,34.23
2022-07-27T14:23:35.120Z,34.29
2022-07-27T14:26:05.662Z,33.65
2022-07-27T14:28:34.796Z,34.14
2022-07-27T14:31:06.662Z,33.47
2022-07-27T14:33:36.945Z,33.84
2022-07-27T14:36:06.923Z,35.32
2022-07-27T14:38:37.420Z,35.47
2022-07-27T14:41:06.028Z,34.97
2022-07-27T14:43:34.362Z,33.26
2022-07-27T14:46:02.359Z,31.39
2022-07-27T14:49:03.262Z,31.25
2022-07-27T14:51:18.679Z,31.47
2022-07-27T14:53:46.747Z,31.55
2022-07-27T14:56:15.190Z,31.16
2022-07-27T14:58:43.685Z,32.65
2022-07-27T15:01:12.080Z,35.20
2022-07-27T15:03:40.180Z,37.26
2022-07-27T15:06:08.330Z,38.44
2022-07-27T15:08:36.394Z,38.99
2022-07-27T15:11:04.452Z,38.31
2022-07-27T15:13:32.652Z,37.12
2022-07-27T15:16:00.725Z,34.26
2022-07-27T15:18:32.771Z,33.39
2022-07-27T15:21:03.286Z,34.03
2022-07-27T15:23:42.228Z,33.97
2022-07-27T15:26:12.024Z,34.85
2022-07-27T15:28:42.175Z,36.16
2022-07-27T15:31:11.233Z,36.59
2022-07-27T15:33:39.372Z,37.21
2022-07-27T15:36:07.572Z,37.18
2022-07-27T15:38:36.530Z,37.58
2022-07-27T15:41:05.144Z,37.95
2022-07-27T15:43:34.795Z,38.30
2022-07-27T15:46:03.630Z,38.49
2022-07-27T15:48:32.213Z,38.98
2022-07-27T15:51:00.247Z,39.35
2022-07-27T15:53:29.423Z,39.30
2022-07-27T15:55:58.395Z,39.84
2022-07-27T15:58:26.616Z,40.29
2022-07-27T16:00:58.063Z,40.83
2022-07-27T16:03:28.224Z,41.38
2022-07-27T16:05:58.017Z,42.02
2022-07-27T16:08:27.534Z,42.63
2022-07-27T16:10:55.454Z,43.13
2022-07-27T16:13:25.517Z,43.26
2022-07-27T16:16:12.577Z,43.69
2022-07-27T16:18:40.762Z,43.62
2022-07-27T16:21:08.896Z,43.40
2022-07-27T16:23:36.882Z,42.85
2022-07-27T16:26:06.694Z,42.13
2022-07-27T16:28:43.065Z,42.92
2022-07-27T16:31:14.484Z,41.99
2022-07-27T16:33:45.103Z,42.16
2022-07-27T16:36:13.331Z,42.67
2022-07-27T16:38:49.927Z,42.53
2022-07-27T16:41:22.024Z,42.44
2022-07-27T16:43:50.184Z,42.91
2022-07-27T16:46:18.377Z,43.00
2022-07-27T16:48:47.274Z,43.12
2022-07-27T16:51:16.336Z,43.48
2022-07-27T16:53:48.494Z,42.78
2022-07-27T16:56:18.169Z,42.91
2022-07-27T16:58:46.366Z,43.67
2022-07-27T17:01:22.277Z,44.15
2022-07-27T17:03:57.411Z,44.19
2022-07-27T17:06:27.054Z,44.67
2022-07-27T17:08:55.433Z,45.21
2022-07-27T17:11:23.751Z,45.83
2022-07-27T17:13:58.814Z,45.18
2022-07-27T17:16:28.920Z,45.32
2022-07-27T17:18:57.239Z,44.83
2022-07-27T17:21:25.746Z,44.97
2022-07-27T17:23:53.941Z,44.70
2022-07-27T17:26:22.802Z,44.82
2022-07-27T17:28:53.717Z,44.90
2022-07-27T17:31:22.045Z,45.01
2022-07-27T17:33:51.414Z,45.57
2022-07-27T17:36:20.359Z,46.01
2022-07-27T17:38:50.055Z,46.75
2022-07-27T17:41:24.038Z,47.32
2022-07-27T17:43:54.880Z,47.59
2022-07-27T17:46:24.989Z,47.96
2022-07-27T17:48:54.466Z,48.18
2022-07-27T17:51:25.565Z,48.36
2022-07-27T17:53:54.298Z,48.45
2022-07-27T17:56:22.485Z,48.70
2022-07-27T17:58:50.761Z,48.68
2022-07-27T18:01:46.466Z,48.45
2022-07-27T18:04:07.892Z,48.79
2022-07-27T18:06:36.483Z,49.17
2022-07-27T18:09:04.496Z,49.23
2022-07-27T18:11:32.465Z,49.53
2022-07-27T18:14:00.558Z,49.33
2022-07-27T18:16:28.840Z,49.12
2022-07-27T18:18:56.957Z,49.38
2022-07-27T18:21:24.996Z,49.44
2022-07-27T18:23:53.645Z,49.25
2022-07-27T18:26:22.459Z,49.35
2022-07-27T18:28:55.014Z,49.89
2022-07-27T18:31:24.924Z,49.93
2022-07-27T18:33:54.996Z,50.25
2022-07-27T18:36:23.264Z,50.89
2022-07-27T18:38:51.501Z,50.93
2022-07-27T18:41:19.656Z,50.36
2022-07-27T18:43:53.991Z,50.67
2022-07-27T18:46:23.169Z,51.01
2022-07-27T18:48:51.290Z,51.29
2022-07-27T18:51:22.133Z,51.63
2022-07-27T18:53:50.149Z,51.88
2022-07-27T18:56:18.299Z,52.44
2022-07-27T18:58:47.036Z,52.83
2022-07-27T19:01:15.215Z,53.67
2022-07-27T19:03:43.496Z,54.53
2022-07-27T19:06:12.619Z,55.47
2022-07-27T19:08:46.829Z,56.34
2022-07-27T19:11:15.611Z,57.25
2022-07-27T19:13:45.683Z,57.70
2022-07-27T19:16:13.707Z,58.32
2022-07-27T19:18:42.157Z,58.71
2022-07-27T19:21:10.107Z,59.36
2022-07-27T19:23:38.087Z,60.17
2022-07-27T19:26:07.074Z,60.65
2022-07-27T19:28:35.167Z,61.10
2022-07-27T19:31:03.175Z,61.27
2022-07-27T19:33:32.299Z,61.42
2022-07-27T19:36:00.459Z,61.93
2022-07-27T19:38:28.550Z,62.25
2022-07-27T19:40:57.177Z,62.63
2022-07-27T19:43:25.290Z,62.59
2022-07-27T19:45:53.357Z,62.78
2022-07-27T19:48:22.641Z,63.06
2022-07-27T19:50:50.755Z,63.12
2022-07-27T19:53:18.882Z,63.35
2022-07-27T19:55:47.025Z,63.74
2022-07-27T19:58:15.795Z,64.41
2022-07-27T20:00:46.503Z,64.51
2022-07-27T20:03:14.799Z,64.66
2022-07-27T20:05:42.793Z,64.96
2022-07-27T20:08:10.953Z,65.64
2022-07-27T20:10:40.140Z,65.95
2022-07-27T20:13:09.373Z,63.04
2022-07-27T20:15:37.510Z,62.84
2022-07-27T20:18:05.606Z,59.51
2022-07-27T20:20:33.722Z,58.13
2022-07-27T20:23:01.691Z,57.45
2022-07-27T20:25:29.679Z,56.39
2022-07-27T20:27:58.079Z,55.62
2022-07-27T20:30:27.030Z,54.68
2022-07-27T20:32:55.139Z,54.48
2022-07-27T20:35:23.738Z,53.65
2022-07-27T20:38:03.595Z,53.39
2022-07-27T20:40:32.185Z,53.22
2022-07-27T20:43:00.271Z,53.31
2022-07-27T20:45:28.553Z,53.32
2022-07-27T20:47:57.464Z,53.77
2022-07-27T20:50:25.700Z,54.08
2022-07-27T20:52:53.731Z,54.00
2022-07-27T20:55:21.813Z,54.16
2022-07-27T20:57:50.048Z,54.27
2022-07-27T21:00:19.431Z,54.52
2022-07-27T21:02:48.643Z,54.69
2022-07-27T21:05:18.774Z,54.98
2022-07-27T21:07:46.750Z,55.47
2022-07-27T21:10:14.750Z,56.02
2022-07-27T21:12:44.233Z,56.28
2022-07-27T21:15:13.616Z,57.06
2022-07-27T21:17:42.962Z,57.89
2022-07-27T21:20:11.666Z,57.95
2022-07-27T21:22:39.822Z,57.82
2022-07-27T21:25:08.249Z,57.93
2022-07-27T21:27:36.539Z,58.43
2022-07-27T21:30:07.572Z,59.14
2022-07-27T21:32:35.749Z,59.58
2022-07-27T21:35:06.902Z,59.73
2022-07-27T21:37:35.767Z,60.03
2022-07-27T21:40:03.992Z,59.93
2022-07-27T21:42:33.333Z,60.25
2022-07-27T21:45:01.817Z,60.76
2022-07-27T21:47:31.537Z,61.18
2022-07-27T21:49:59.761Z,60.93
2022-07-27T21:52:27.847Z,60.26
2022-07-27T21:54:55.872Z,59.56
2022-07-27T21:57:24.170Z,59.41
2022-07-27T21:59:52.257Z,59.39
2022-07-27T22:02:20.319Z,59.50
2022-07-27T22:04:48.393Z,59.52
2022-07-27T22:07:19.513Z,60.10
2022-07-27T22:09:49.265Z,60.13
2022-07-27T22:12:17.337Z,60.34
2022-07-27T22:14:45.360Z,59.65
2022-07-27T22:17:13.380Z,59.88
2022-07-27T22:19:41.600Z,59.91
2022-07-27T22:22:09.679Z,59.91
2022-07-27T22:24:38.278Z,60.13
2022-07-27T22:27:06.878Z,60.44
2022-07-27T22:29:37.921Z,60.21
2022-07-27T22:32:07.151Z,60.21
2022-07-27T22:34:35.116Z,60.62
2022-07-27T22:37:03.686Z,60.82
2022-07-27T22:39:31.838Z,60.89
2022-07-27T22:41:59.995Z,61.41
2022-07-27T22:44:28.119Z,61.81
2022-07-27T22:46:56.316Z,61.86
2022-07-27T22:49:24.637Z,62.13
2022-07-27T22:51:54.306Z,62.23
2022-07-27T22:54:23.021Z,62.55
2022-07-27T22:56:51.021Z,63.01
2022-07-27T22:59:19.625Z,63.08
2022-07-27T23:01:48.395Z,63.22
2022-07-27T23:04:17.685Z,63.42
2022-07-27T23:06:47.467Z,63.33
2022-07-27T23:09:16.420Z,62.81
2022-07-27T23:11:45.268Z,62.91
2022-07-27T23:14:13.905Z,62.68
2022-07-27T23:16:43.976Z,62.60
2022-07-27T23:19:12.116Z,62.97
2022-07-27T23:22:10.883Z,63.29
2022-07-27T23:24:46.475Z,63.74
2022-07-27T23:27:14.299Z,63.60
2022-07-27T23:29:44.710Z,63.53
2022-07-27T23:32:12.711Z,63.93
2022-07-27T23:34:40.711Z,64.01
2022-07-27T23:37:08.801Z,64.17
2022-07-27T23:39:36.785Z,64.37
2022-07-27T23:42:04.905Z,65.01
2022-07-27T23:44:32.968Z,65.30
2022-07-27T23:47:01.385Z,65.61
2022-07-27T23:49:29.444Z,65.90
2022-07-27T23:51:57.557Z,66.25
2022-07-27T23:54:25.776Z,66.49
2022-07-27T23:56:53.939Z,66.90
2022-07-27T23:59:21.994Z,67.31
